Time;durP1;ratioP1;P1;durP2;ratioP2;P2;SDS_P1;SDS_P2;PMS_P1;PMS_P2;Temp;Humidity;BMP_temperature;BMP_pressure;BME280_temperature;BME280_humidity;BME280_pressure;Samples;Min_cycle;Max_cycle;Signal;HPM_P1;HPM_P2
2021/06/30 00:02:12;;;;;;;13.45;5.82;;;;;;;25.53;63.34;99951.19;4941215;29;20402;-72
2021/06/30 00:04:38;;;;;;;17.27;5.57;;;;;;;25.52;63.41;99953.25;4957661;29;20035;-72
2021/06/30 00:07:04;;;;;;;18.58;6.57;;;;;;;25.41;64.08;99950.06;4956998;29;20573;-72
2021/06/30 00:09:30;;;;;;;18.83;6.10;;;;;;;25.43;64.09;99955.28;4941094;29;20182;-73
2021/06/30 00:11:56;;;;;;;15.32;6.25;;;;;;;25.41;64.00;99958.63;4957300;29;20118;-71
2021/06/30 00:14:22;;;;;;;15.75;6.45;;;;;;;25.42;64.03;99953.72;4957545;29;20416;-72
2021/06/30 00:16:52;;;;;;;13.60;5.70;;;;;;;25.43;64.35;99960.97;4957219;29;20189;-71
2021/06/30 00:19:19;;;;;;;16.73;5.63;;;;;;;25.42;64.19;99962.25;4940968;29;20035;-71
2021/06/30 00:21:45;;;;;;;12.93;5.10;;;;;;;25.42;63.89;99965.88;4956843;29;20043;-72
2021/06/30 00:24:14;;;;;;;15.18;5.85;;;;;;;25.46;64.11;99966.53;4957523;29;20095;-71
2021/06/30 00:26:40;;;;;;;10.57;5.13;;;;;;;25.45;64.70;99959.22;4956969;29;20031;-72
2021/06/30 00:29:06;;;;;;;17.50;6.10;;;;;;;25.35;64.91;99960.47;4956666;29;20539;-71
2021/06/30 00:31:33;;;;;;;16.20;6.20;;;;;;;25.45;64.96;99964.94;4956646;29;20042;-71
2021/06/30 00:34:03;;;;;;;20.73;6.38;;;;;;;25.40;65.48;99976.16;4940626;29;20031;-71
2021/06/30 00:36:34;;;;;;;14.15;5.80;;;;;;;25.34;65.33;99971.06;4940584;29;20047;-72
2021/06/30 00:39:03;;;;;;;15.00;6.25;;;;;;;25.38;64.71;99961.59;4958355;29;20106;-72
2021/06/30 00:41:32;;;;;;;15.95;5.28;;;;;;;25.36;64.57;99962.06;4940758;29;20031;-71
2021/06/30 00:43:58;;;;;;;13.25;5.70;;;;;;;25.18;65.09;99956.31;4956967;29;20039;-72
2021/06/30 00:46:28;;;;;;;16.05;5.80;;;;;;;25.23;64.60;99969.94;4940216;29;20062;-73
2021/06/30 00:48:54;;;;;;;20.20;6.38;;;;;;;25.24;64.76;99963.75;4956534;29;20437;-72
2021/06/30 00:51:20;;;;;;;14.15;5.70;;;;;;;25.24;64.85;99955.22;4956330;29;20230;-72
2021/06/30 00:53:46;;;;;;;13.85;6.05;;;;;;;25.24;64.77;99954.41;4940311;29;20031;-72
2021/06/30 00:56:13;;;;;;;16.85;7.05;;;;;;;25.21;64.77;99953.31;4956209;29;20167;-71
2021/06/30 00:58:40;;;;;;;17.77;6.20;;;;;;;25.27;65.00;99936.41;4940142;29;20031;-72
2021/06/30 01:01:06;;;;;;;11.90;6.22;;;;;;;25.36;65.18;99945.00;4939621;29;20027;-72
2021/06/30 01:03:31;;;;;;;19.60;6.03;;;;;;;25.27;65.67;99947.81;4956529;29;20053;-71
2021/06/30 01:05:57;;;;;;;15.80;6.07;;;;;;;25.26;65.50;99949.06;4956242;29;20126;-71
2021/06/30 01:08:23;;;;;;;16.58;5.95;;;;;;;25.20;65.64;99942.41;4955892;29;20031;-73
2021/06/30 01:10:48;;;;;;;16.85;6.22;;;;;;;25.18;65.59;99934.31;4956159;29;20035;-72
2021/06/30 01:13:14;;;;;;;14.48;6.18;;;;;;;25.16;65.39;99936.06;4956129;29;20360;-72
2021/06/30 01:15:57;;;;;;;17.83;5.65;;;;;;;25.12;65.71;99929.72;4940105;29;20031;-71
2021/06/30 01:18:23;;;;;;;;;;;;;;;25.05;65.62;99936.47;4957543;29;20422;-72
2021/06/30 01:20:50;;;;;;;19.88;7.45;;;;;;;25.08;65.93;99935.53;4956508;29;19910;-72
2021/06/30 01:23:16;;;;;;;22.90;7.93;;;;;;;25.07;66.16;99933.97;4940215;29;20105;-73
2021/06/30 01:25:42;;;;;;;18.08;6.38;;;;;;;25.07;65.68;99929.06;4939831;29;20491;-72
2021/06/30 01:28:08;;;;;;;14.95;7.00;;;;;;;25.07;65.33;99928.28;4955938;29;20047;-72
2021/06/30 01:30:34;;;;;;;17.83;6.65;;;;;;;25.14;65.46;99918.66;4939836;29;20498;-71
2021/06/30 01:33:00;;;;;;;12.82;6.45;;;;;;;25.17;65.54;99931.94;4955584;29;20046;-71
2021/06/30 01:35:26;;;;;;;14.68;5.57;;;;;;;25.16;65.62;99944.59;4956019;29;20027;-71
2021/06/30 01:37:52;;;;;;;14.80;7.43;;;;;;;25.11;65.60;99945.22;4955465;29;20594;-72
2021/06/30 01:40:19;;;;;;;15.45;5.95;;;;;;;25.19;66.12;99940.81;4955337;29;20125;-73
2021/06/30 01:42:48;;;;;;;16.67;6.47;;;;;;;25.20;66.01;99939.56;4956653;29;20031;-72
2021/06/30 01:45:14;;;;;;;16.40;6.03;;;;;;;25.16;65.87;99942.53;4939391;29;20027;-72
2021/06/30 01:47:41;;;;;;;17.33;6.72;;;;;;;25.21;65.44;99944.00;4939274;29;20529;-72
2021/06/30 01:50:07;;;;;;;25.52;6.95;;;;;;;25.28;65.52;99940.84;4955232;29;20037;-72
2021/06/30 01:52:33;;;;;;;17.83;7.40;;;;;;;25.24;66.04;99945.88;4955710;29;20127;-71
2021/06/30 01:54:59;;;;;;;17.65;6.03;;;;;;;25.33;66.03;99946.72;4939197;29;20426;-71
2021/06/30 01:57:25;;;;;;;15.55;5.82;;;;;;;25.24;66.38;99948.72;4938465;29;20058;-72
2021/06/30 01:59:50;;;;;;;11.98;6.00;;;;;;;25.08;66.89;99947.72;4954463;29;20394;-72
2021/06/30 02:02:16;;;;;;;16.67;6.82;;;;;;;24.97;67.33;99949.38;4954300;29;20114;-71
2021/06/30 02:04:42;;;;;;;19.80;7.00;;;;;;;24.97;67.94;99957.94;4954175;29;20450;-72
2021/06/30 02:07:08;;;;;;;19.55;5.68;;;;;;;24.90;68.30;99941.94;4954672;29;20035;-71
2021/06/30 02:09:34;;;;;;;13.55;6.00;;;;;;;24.89;68.12;99946.03;4954582;29;20058;-71
2021/06/30 02:12:00;;;;;;;18.48;6.32;;;;;;;24.93;68.19;99943.84;4954715;28;20035;-71
2021/06/30 02:14:27;;;;;;;16.73;6.10;;;;;;;25.01;67.80;99939.44;4938082;29;20046;-71
2021/06/30 02:16:53;;;;;;;15.02;6.68;;;;;;;25.10;67.67;99946.47;4955236;29;20031;-72
2021/06/30 02:19:19;;;;;;;24.67;7.43;;;;;;;25.15;68.43;99940.19;4954764;29;20454;-72
2021/06/30 02:21:44;;;;;;;18.58;6.40;;;;;;;25.17;67.63;99937.66;4939192;29;20033;-72
2021/06/30 02:24:10;;;;;;;15.32;5.35;;;;;;;25.13;67.79;99934.94;4939239;29;20058;-71
2021/06/30 02:26:36;;;;;;;20.90;8.65;;;;;;;25.01;68.19;99930.91;4954467;29;20410;-72
2021/06/30 02:29:03;;;;;;;17.50;5.88;;;;;;;25.02;68.82;99934.53;4954426;29;20035;-72
2021/06/30 02:31:30;;;;;;;18.75;6.60;;;;;;;25.07;68.42;99945.34;4954706;29;20118;-72
2021/06/30 02:33:56;;;;;;;18.33;11.38;;;;;;;25.05;68.60;99948.66;4954437;29;20098;-71
2021/06/30 02:36:24;;;;;;;27.25;14.57;;;;;;;25.00;68.67;99951.31;4954494;29;20027;-72
2021/06/30 02:38:50;;;;;;;26.92;15.32;;;;;;;24.99;68.79;99947.69;4955675;29;20066;-71
2021/06/30 02:41:18;;;;;;;22.85;9.30;;;;;;;24.94;68.25;99950.34;4954259;29;20058;-71
2021/06/30 02:43:44;;;;;;;14.95;6.63;;;;;;;24.90;68.45;99958.22;4955590;29;20023;-71
2021/06/30 02:46:10;;;;;;;18.42;6.63;;;;;;;24.75;68.73;99952.28;4954803;29;20474;-72
2021/06/30 02:48:35;;;;;;;15.63;6.25;;;;;;;24.56;69.68;99946.50;4954219;29;20492;-72
2021/06/30 02:51:01;;;;;;;18.45;6.05;;;;;;;24.50;69.99;99959.75;4954062;29;20058;-72
2021/06/30 02:53:27;;;;;;;21.88;7.60;;;;;;;24.44;70.07;99972.94;4954135;29;20035;-71
2021/06/30 02:55:53;;;;;;;16.08;7.70;;;;;;;24.41;70.21;99973.88;4937938;29;20047;-72
2021/06/30 02:58:19;;;;;;;15.38;7.60;;;;;;;24.44;69.96;99978.63;4955192;29;20423;-72
2021/06/30 03:00:45;;;;;;;18.88;8.63;;;;;;;24.55;70.17;99973.38;4954134;29;20055;-72
2021/06/30 03:03:11;;;;;;;22.98;12.55;;;;;;;24.55;69.83;99970.53;4954045;29;20031;-72
2021/06/30 03:05:39;;;;;;;30.92;17.23;;;;;;;24.55;69.69;99967.69;4955250;29;20082;-72
2021/06/30 03:08:08;;;;;;;26.00;17.30;;;;;;;24.64;69.52;99968.97;4953965;29;20035;-72
2021/06/30 03:10:33;;;;;;;27.98;21.65;;;;;;;24.69;69.10;99974.06;4954022;29;20031;-72
2021/06/30 03:12:59;;;;;;;24.73;19.50;;;;;;;24.74;69.00;99967.78;4954294;29;20436;-72
2021/06/30 03:15:24;;;;;;;32.80;22.10;;;;;;;24.66;69.70;99969.28;4954502;29;20547;-72
2021/06/30 03:17:50;;;;;;;34.80;31.02;;;;;;;24.65;69.55;99971.34;4953978;29;20394;-72
2021/06/30 03:20:16;;;;;;;23.88;18.08;;;;;;;24.65;69.65;99970.56;4953888;29;20038;-71
2021/06/30 03:22:42;;;;;;;40.58;26.98;;;;;;;24.61;69.62;99969.91;4954878;29;20035;-72
2021/06/30 03:25:13;;;;;;;32.40;26.25;;;;;;;24.63;69.65;99973.88;4956145;28;20031;-72
2021/06/30 03:27:40;;;;;;;47.50;37.13;;;;;;;24.59;69.77;99980.94;4958731;29;20094;-71
2021/06/30 03:30:08;;;;;;;52.38;35.83;;;;;;;24.59;69.79;99972.41;4959583;29;20027;-72
2021/06/30 03:32:33;;;;;;;45.22;37.22;;;;;;;24.64;69.40;99974.66;4958238;29;20390;-71
2021/06/30 03:34:59;;;;;;;35.88;28.52;;;;;;;24.65;69.24;99987.63;4957636;29;20024;-72
2021/06/30 03:37:28;;;;;;;31.13;20.35;;;;;;;24.62;69.06;99991.41;4957555;29;20031;-72
2021/06/30 03:39:53;;;;;;;32.88;24.52;;;;;;;24.61;69.17;99992.66;4957630;29;20034;-72
2021/06/30 03:42:19;;;;;;;23.27;15.30;;;;;;;24.45;69.07;99976.59;4957520;29;20035;-71
2021/06/30 03:44:44;;;;;;;24.65;16.52;;;;;;;24.51;69.34;99998.28;4959086;29;20033;-71
2021/06/30 03:47:10;;;;;;;26.33;16.65;;;;;;;24.55;69.24;99995.28;4957681;29;20414;-72
2021/06/30 03:49:39;;;;;;;22.48;15.00;;;;;;;24.55;69.22;99998.97;4957672;29;20489;-72
2021/06/30 03:52:13;;;;;;;22.20;11.05;;;;;;;24.57;69.43;99992.81;4957602;29;20042;-71
2021/06/30 03:54:47;;;;;;;22.20;15.02;;;;;;;24.62;68.61;99991.41;4957692;29;20032;-72
2021/06/30 03:57:12;;;;;;;23.80;12.27;;;;;;;24.69;68.94;99982.59;4941012;29;20074;-72
2021/06/30 03:59:38;;;;;;;33.78;12.88;;;;;;;24.73;68.44;99977.56;4957416;29;20027;-71
2021/06/30 04:02:03;;;;;;;16.05;9.38;;;;;;;24.70;68.44;99984.97;4957103;29;20482;-71
2021/06/30 04:04:29;;;;;;;22.77;10.00;;;;;;;24.70;68.60;99981.34;4958344;29;20050;-72
2021/06/30 04:06:55;;;;;;;22.40;10.82;;;;;;;24.70;68.81;99984.19;4956989;29;20042;-72
2021/06/30 04:09:22;;;;;;;17.70;13.20;;;;;;;24.71;68.60;99989.41;4957071;29;20038;-71
2021/06/30 04:11:47;;;;;;;36.33;14.30;;;;;;;24.75;68.25;99992.13;4957337;29;20045;-71
2021/06/30 04:14:15;;;;;;;22.63;14.75;;;;;;;24.87;68.27;99999.75;4956928;29;20555;-72
2021/06/30 04:16:41;;;;;;;34.20;20.65;;;;;;;25.05;67.67;100011.25;4956880;29;20086;-71
2021/06/30 04:19:07;;;;;;;30.00;18.98;;;;;;;25.23;66.88;100010.56;4956843;29;20027;-72
2021/06/30 04:21:32;;;;;;;23.17;12.65;;;;;;;25.40;66.07;100018.88;4957265;29;20031;-72
2021/06/30 04:24:00;;;;;;;23.90;10.23;;;;;;;25.55;65.46;100011.31;4956745;29;20394;-71
2021/06/30 04:26:26;;;;;;;15.50;7.97;;;;;;;25.72;64.98;100011.84;4956925;29;20031;-73
2021/06/30 04:28:52;;;;;;;23.00;8.45;;;;;;;25.94;64.59;100009.72;4956788;29;20151;-72
2021/06/30 04:31:21;;;;;;;21.00;8.68;;;;;;;26.09;63.52;100016.34;4956729;29;20106;-72
2021/06/30 04:33:49;;;;;;;20.38;7.18;;;;;;;26.37;62.86;100007.84;4957144;29;20023;-72
2021/06/30 04:36:18;;;;;;;15.82;6.25;;;;;;;26.49;62.33;99989.78;4955913;28;20422;-72
2021/06/30 04:38:46;;;;;;;18.17;7.32;;;;;;;26.68;61.62;100007.66;4956779;29;20031;-72
2021/06/30 04:41:12;;;;;;;18.08;6.78;;;;;;;26.98;61.38;100008.69;4956773;29;20134;-73
2021/06/30 04:43:39;;;;;;;17.33;6.68;;;;;;;27.21;60.05;100015.00;4956529;29;20565;-72
2021/06/30 04:46:06;;;;;;;20.05;6.38;;;;;;;27.31;59.75;99997.34;4940463;29;20027;-73
2021/06/30 04:48:35;;;;;;;25.42;7.07;;;;;;;27.54;58.70;100010.09;4956948;29;20414;-73
2021/06/30 04:51:01;;;;;;;17.20;6.43;;;;;;;27.81;58.17;100000.59;4956869;28;20198;-72
2021/06/30 04:53:27;;;;;;;21.52;7.32;;;;;;;28.13;57.19;100004.66;4955944;29;20450;-72
2021/06/30 04:55:53;;;;;;;13.07;5.15;;;;;;;28.45;56.25;100007.91;4955977;29;20055;-71
2021/06/30 04:58:19;;;;;;;17.90;6.78;;;;;;;28.63;55.49;99999.13;4956283;29;20031;-72
2021/06/30 05:00:47;;;;;;;11.60;5.70;;;;;;;28.89;55.08;100001.41;4956033;29;20050;-71
2021/06/30 05:03:13;;;;;;;18.08;5.65;;;;;;;29.07;54.28;100006.97;4956110;29;20050;-72
2021/06/30 05:05:41;;;;;;;23.75;7.25;;;;;;;29.36;53.80;100013.94;4956269;29;20040;-72
2021/06/30 05:08:06;;;;;;;16.02;5.93;;;;;;;29.56;53.03;100013.22;4956563;29;20402;-72
2021/06/30 05:10:32;;;;;;;17.70;5.43;;;;;;;29.86;51.48;100048.31;4956003;29;20055;-72
2021/06/30 05:13:00;;;;;;;12.23;4.95;;;;;;;30.07;51.72;100049.91;4956249;29;20050;-73
2021/06/30 05:15:26;;;;;;;24.35;6.45;;;;;;;29.88;52.36;100035.09;4956000;29;20027;-72
2021/06/30 05:17:52;;;;;;;20.52;6.07;;;;;;;29.70;53.06;100041.84;4955939;29;20490;-73
2021/06/30 05:20:18;;;;;;;12.85;5.75;;;;;;;30.04;52.30;100035.78;4955903;29;20038;-72
2021/06/30 05:22:43;;;;;;;27.08;6.97;;;;;;;29.11;56.31;100024.75;4955865;29;20069;-73
2021/06/30 05:25:09;;;;;;;20.38;6.10;;;;;;;29.88;54.19;100040.00;4940103;29;20034;-73
2021/06/30 05:27:36;;;;;;;16.95;6.78;;;;;;;30.03;53.32;100040.72;4955684;29;20042;-72
2021/06/30 05:30:03;;;;;;;23.65;6.80;;;;;;;29.58;55.23;100040.09;4955752;29;20027;-72
2021/06/30 05:32:29;;;;;;;26.15;6.78;;;;;;;29.79;55.23;100031.56;4939730;29;20031;-72
2021/06/30 05:34:55;;;;;;;15.07;5.85;;;;;;;30.27;53.38;100038.47;4955587;29;20099;-72
2021/06/30 05:37:20;;;;;;;21.13;6.40;;;;;;;30.36;53.35;100048.22;4939532;29;20066;-72
2021/06/30 05:39:46;;;;;;;15.70;6.55;;;;;;;30.51;52.53;100048.91;4955672;29;20062;-72
2021/06/30 05:42:12;;;;;;;15.75;7.00;;;;;;;29.93;54.84;100042.94;4939421;29;20100;-72
2021/06/30 05:44:37;;;;;;;25.42;6.40;;;;;;;29.78;54.60;100035.72;4955688;29;20433;-72
2021/06/30 05:47:03;;;;;;;17.67;6.47;;;;;;;29.36;56.56;100042.59;4939173;29;20035;-72
2021/06/30 05:49:29;;;;;;;19.67;5.40;;;;;;;29.80;55.32;100045.38;4956350;29;20027;-72
2021/06/30 05:51:55;;;;;;;22.70;6.47;;;;;;;29.74;55.85;100058.84;4955775;29;20397;-72
2021/06/30 05:54:21;;;;;;;22.95;6.30;;;;;;;29.40;57.48;100054.63;4939536;29;20490;-73
2021/06/30 05:56:49;;;;;;;23.67;6.25;;;;;;;29.20;57.53;100050.41;4955202;29;20510;-72
2021/06/30 05:59:17;;;;;;;16.48;7.70;;;;;;;29.93;55.95;100059.38;4955433;29;20110;-72
2021/06/30 06:01:43;;;;;;;20.40;6.38;;;;;;;29.94;56.02;100089.66;4955322;29;20043;-71
2021/06/30 06:04:09;;;;;;;20.67;6.93;;;;;;;30.38;53.99;100082.97;4954994;29;20164;-72
2021/06/30 06:06:34;;;;;;;24.10;6.30;;;;;;;29.93;55.68;100088.03;4954918;29;20062;-72
2021/06/30 06:09:00;;;;;;;21.27;7.57;;;;;;;30.77;53.98;100103.53;4955996;29;20544;-71
2021/06/30 06:11:26;;;;;;;20.10;6.60;;;;;;;31.02;53.04;100116.34;4954895;29;20027;-72
2021/06/30 06:13:52;;;;;;;18.20;6.82;;;;;;;31.73;50.80;100131.13;4954807;29;20027;-72
2021/06/30 06:16:21;;;;;;;21.58;6.47;;;;;;;32.36;49.37;100141.78;4956310;29;20042;-73
2021/06/30 06:18:48;;;;;;;15.70;5.93;;;;;;;31.74;50.31;100139.22;4954061;29;20030;-73
2021/06/30 06:21:15;;;;;;;26.83;7.72;;;;;;;30.99;51.99;100135.38;4954748;29;20039;-72
2021/06/30 06:23:41;;;;;;;17.58;6.22;;;;;;;31.40;50.20;100140.25;4956315;29;20027;-73
2021/06/30 06:26:07;;;;;;;23.38;7.18;;;;;;;31.81;50.10;100146.66;4954357;29;20105;-73
2021/06/30 06:28:34;;;;;;;20.27;6.30;;;;;;;32.59;47.51;100134.81;4954519;29;20027;-73
2021/06/30 06:31:02;;;;;;;18.58;7.15;;;;;;;32.90;46.19;100128.16;4954203;29;20035;-72
2021/06/30 06:33:28;;;;;;;18.48;7.43;;;;;;;32.48;48.12;100126.13;4938003;29;20027;-72
2021/06/30 06:35:54;;;;;;;24.98;7.03;;;;;;;32.00;49.24;100124.00;4954683;29;20050;-73
2021/06/30 06:38:20;;;;;;;22.63;7.47;;;;;;;31.12;51.94;100112.00;4955052;29;20371;-73
2021/06/30 06:40:49;;;;;;;23.35;9.52;;;;;;;30.58;53.20;100111.66;4953924;29;20039;-73
2021/06/30 06:43:15;;;;;;;26.23;9.75;;;;;;;29.90;54.92;100112.78;4954080;29;20031;-72
2021/06/30 06:45:41;;;;;;;24.23;10.02;;;;;;;29.88;55.51;100121.13;4938074;29;20054;-72
2021/06/30 06:48:10;;;;;;;19.60;8.30;;;;;;;30.11;54.42;100133.69;4954257;29;20035;-73
2021/06/30 06:50:36;;;;;;;17.05;7.65;;;;;;;30.33;54.64;100126.72;4953900;29;20038;-72
2021/06/30 06:53:02;;;;;;;20.65;10.20;;;;;;;31.63;50.63;100124.75;4937842;29;20444;-72
2021/06/30 06:55:28;;;;;;;21.40;7.40;;;;;;;31.18;51.50;100121.47;4953916;29;20094;-74
2021/06/30 06:57:54;;;;;;;22.58;7.20;;;;;;;30.80;52.43;100122.66;4953964;29;20027;-72
2021/06/30 07:00:20;;;;;;;19.67;6.82;;;;;;;30.82;52.02;100122.91;4953490;28;20489;-72
2021/06/30 07:02:49;;;;;;;18.90;7.18;;;;;;;30.51;52.44;100109.19;4955406;29;20101;-72
2021/06/30 07:05:15;;;;;;;20.15;7.60;;;;;;;30.23;54.06;100111.72;4954141;29;20039;-72
2021/06/30 07:07:42;;;;;;;23.13;8.55;;;;;;;29.95;55.04;100120.69;4938281;29;20110;-73
2021/06/30 07:10:08;;;;;;;27.20;8.15;;;;;;;30.20;54.26;100129.91;4953761;29;20035;-73
2021/06/30 07:12:36;;;;;;;20.48;7.70;;;;;;;30.04;54.58;100145.56;4953994;29;20356;-72
2021/06/30 07:15:04;;;;;;;20.95;7.85;;;;;;;29.43;56.15;100137.53;4954804;29;20087;-73
2021/06/30 07:17:30;;;;;;;24.23;8.40;;;;;;;29.38;56.06;100121.03;4953875;29;20086;-72
2021/06/30 07:19:56;;;;;;;27.75;8.43;;;;;;;28.93;57.78;100105.94;4953985;29;20039;-72
2021/06/30 07:22:22;;;;;;;23.42;8.10;;;;;;;28.65;58.76;100079.56;4937748;29;20027;-72
2021/06/30 07:24:48;;;;;;;21.52;8.27;;;;;;;28.32;59.90;100085.38;4955244;29;20035;-72
2021/06/30 07:27:14;;;;;;;26.58;9.43;;;;;;;27.93;61.38;100105.34;4954163;29;20035;-72
2021/06/30 07:29:39;;;;;;;26.05;9.50;;;;;;;28.23;60.46;100116.13;4954071;29;20042;-72
2021/06/30 07:32:05;;;;;;;28.73;9.68;;;;;;;28.38;59.58;100112.06;4954376;29;20058;-74
2021/06/30 07:34:31;;;;;;;21.02;8.93;;;;;;;27.99;61.26;100031.13;4954219;28;20042;-72
2021/06/30 07:36:58;;;;;;;31.25;9.80;;;;;;;27.55;62.52;100028.81;4953517;29;20035;-72
2021/06/30 07:39:24;;;;;;;16.80;8.90;;;;;;;27.14;63.56;100021.84;4953952;29;20542;-72
2021/06/30 07:41:51;;;;;;;23.95;8.82;;;;;;;26.91;64.17;100014.75;4953271;28;20113;-72
2021/06/30 07:44:17;;;;;;;25.92;8.18;;;;;;;26.86;64.52;99999.06;4954180;29;20122;-71
2021/06/30 07:46:43;;;;;;;20.77;8.30;;;;;;;26.79;65.52;99962.31;4937731;29;20141;-71
2021/06/30 07:49:09;;;;;;;21.85;9.15;;;;;;;26.48;66.74;99938.91;4953539;29;20474;-72
2021/06/30 07:51:34;;;;;;;22.35;9.30;;;;;;;26.56;66.29;99931.59;4954569;29;20027;-72
2021/06/30 07:54:00;;;;;;;30.85;10.20;;;;;;;26.44;66.92;99935.44;4954227;29;20114;-71
2021/06/30 07:56:36;;;;;;;23.75;9.85;;;;;;;26.30;66.74;99914.81;4953190;29;20052;-72
2021/06/30 07:59:02;;;;;;;24.67;9.57;;;;;;;26.19;66.92;99885.22;4953301;29;20031;-72
2021/06/30 08:01:28;;;;;;;20.08;8.25;;;;;;;26.31;66.39;99909.91;4953324;29;20031;-72
2021/06/30 08:03:54;;;;;;;29.05;9.48;;;;;;;26.76;64.90;99934.72;4937871;29;20114;-73
2021/06/30 08:06:19;;;;;;;21.40;9.75;;;;;;;27.28;63.38;99948.97;4953440;29;20182;-72
2021/06/30 08:08:45;;;;;;;19.10;7.63;;;;;;;27.84;61.61;99948.16;4953443;29;20102;-72
2021/06/30 08:11:11;;;;;;;27.92;8.38;;;;;;;28.23;59.42;99950.22;4954414;28;20134;-72
2021/06/30 08:13:40;;;;;;;23.05;7.68;;;;;;;28.55;58.71;99971.38;4957772;29;20058;-73
2021/06/30 08:16:05;;;;;;;22.33;7.15;;;;;;;28.93;56.96;99971.34;4956805;29;20102;-73
2021/06/30 08:18:31;;;;;;;20.95;7.72;;;;;;;29.26;55.65;99983.84;4957289;29;20121;-72
2021/06/30 08:20:56;;;;;;;25.70;7.03;;;;;;;29.38;54.69;99985.56;4956825;29;20042;-72
2021/06/30 08:23:24;;;;;;;19.08;7.35;;;;;;;29.61;53.90;99987.50;4957180;29;20053;-72
2021/06/30 08:25:50;;;;;;;29.98;7.28;;;;;;;29.72;53.60;99976.22;4956469;29;20122;-72
2021/06/30 08:28:22;;;;;;;19.02;6.78;;;;;;;29.72;53.29;99987.69;4956326;29;20179;-72
2021/06/30 08:30:48;;;;;;;17.42;6.90;;;;;;;29.66;51.50;100001.13;4940795;29;20115;-73
2021/06/30 08:33:14;;;;;;;24.73;7.32;;;;;;;29.97;50.97;100011.97;4956592;29;20171;-71
2021/06/30 08:35:39;;;;;;;24.35;6.47;;;;;;;30.00;51.12;100024.53;4956645;29;20058;-72
2021/06/30 08:38:06;;;;;;;17.23;5.53;;;;;;;30.08;50.01;100042.88;4957038;29;20053;-73
2021/06/30 08:40:32;;;;;;;15.10;5.80;;;;;;;30.37;48.96;100052.69;4957512;29;20035;-73
2021/06/30 08:43:01;;;;;;;21.42;6.88;;;;;;;30.67;48.33;100059.81;4956621;29;20534;-74
2021/06/30 08:45:27;;;;;;;20.10;5.95;;;;;;;30.63;48.18;100065.00;4956364;29;20027;-73
2021/06/30 08:47:56;;;;;;;17.88;5.20;;;;;;;30.88;46.77;100074.16;4956901;28;20034;-73
2021/06/30 08:50:23;;;;;;;19.80;5.70;;;;;;;31.46;45.12;100083.59;4956360;29;20094;-73
2021/06/30 08:52:51;;;;;;;20.48;6.15;;;;;;;31.70;43.40;100086.94;4956257;29;20067;-72
2021/06/30 08:55:17;;;;;;;23.10;6.22;;;;;;;31.50;42.74;100098.53;4939602;29;20039;-73
2021/06/30 08:57:47;;;;;;;18.52;6.65;;;;;;;31.23;43.70;100094.09;4955776;29;20044;-74
2021/06/30 09:00:14;;;;;;;25.58;6.32;;;;;;;31.43;43.78;100091.16;4956360;29;20121;-73
2021/06/30 09:02:46;;;;;;;15.15;5.68;;;;;;;31.02;45.08;100090.50;4956876;29;20118;-74
2021/06/30 09:07:44;;;;;;;;;;;;;;;30.77;45.62;100103.53;4957838;29;20279;-73
2021/06/30 09:10:30;;;;;;;18.85;6.30;;;;;;;31.23;43.87;100106.38;4956370;29;19914;-72
2021/06/30 09:12:56;;;;;;;17.60;5.63;;;;;;;31.32;44.36;100096.00;4940074;29;20035;-73
2021/06/30 09:15:32;;;;;;;22.10;5.90;;;;;;;31.15;46.75;100105.22;4955988;29;20094;-73
2021/06/30 09:18:29;;;;;;;17.00;6.07;;;;;;;31.70;46.83;100112.03;4956394;29;20061;-73
2021/06/30 09:21:17;;;;;;;15.85;5.82;;;;;;;31.71;46.10;100111.50;4955973;29;20034;-73
2021/06/30 09:24:05;;;;;;;15.20;6.22;;;;;;;32.18;45.00;100112.09;4955385;28;20035;-73
2021/06/30 09:26:35;;;;;;;16.23;5.57;;;;;;;32.05;43.80;100106.00;4955764;29;20028;-73
2021/06/30 09:29:11;;;;;;;23.35;5.47;;;;;;;32.38;42.78;100104.63;4939560;29;20038;-73
2021/06/30 09:31:46;;;;;;;15.77;6.13;;;;;;;31.94;43.69;100105.94;4956586;29;20024;-73
2021/06/30 09:34:24;;;;;;;24.75;6.88;;;;;;;31.94;47.28;100094.41;4957031;29;20029;-73
2021/06/30 09:36:58;;;;;;;16.40;6.28;;;;;;;31.58;47.48;100058.59;4956059;29;20058;-73
2021/06/30 09:39:24;;;;;;;16.73;5.85;;;;;;;32.04;46.44;100105.22;4940217;29;20039;-73
2021/06/30 09:42:03;;;;;;;16.85;4.95;;;;;;;33.21;44.18;100106.97;4956914;29;20110;-73
2021/06/30 09:44:31;;;;;;;21.35;6.45;;;;;;;32.77;44.11;100116.31;4955882;29;20209;-73
2021/06/30 09:46:57;;;;;;;20.63;6.20;;;;;;;32.42;45.63;100116.69;4939142;29;20082;-73
2021/06/30 09:49:23;;;;;;;20.92;6.07;;;;;;;32.41;45.69;100115.13;4955293;29;20118;-73
2021/06/30 09:52:17;;;;;;;17.38;5.82;;;;;;;32.47;45.73;100099.44;4956124;29;20023;-73
2021/06/30 09:54:44;;;;;;;20.40;5.43;;;;;;;32.50;45.26;100094.75;4950915;29;20545;-74
2021/06/30 09:57:13;;;;;;;17.88;6.03;;;;;;;32.70;44.59;100094.53;4938654;29;20138;-74
2021/06/30 09:59:43;;;;;;;17.25;6.22;;;;;;;33.37;43.84;100097.56;4955057;29;20070;-74
2021/06/30 10:02:12;;;;;;;17.55;5.03;;;;;;;32.97;44.36;100077.84;4939545;29;20031;-74
2021/06/30 10:04:40;;;;;;;18.10;4.95;;;;;;;32.68;45.30;100071.22;4938984;29;20038;-73
2021/06/30 10:07:10;;;;;;;14.75;5.32;;;;;;;32.89;45.28;100083.34;4955362;29;20031;-75
2021/06/30 10:09:38;;;;;;;12.07;4.80;;;;;;;33.49;43.94;100083.94;4955656;29;20140;-73
2021/06/30 10:12:10;;;;;;;15.82;4.88;;;;;;;34.04;42.66;100087.31;4954874;29;20043;-74
2021/06/30 10:14:37;;;;;;;17.10;5.22;;;;;;;33.92;42.76;100094.38;4938771;29;20027;-73
2021/06/30 10:17:03;;;;;;;14.23;5.13;;;;;;;32.89;45.46;100080.47;4954665;29;20027;-73
2021/06/30 10:19:30;;;;;;;17.45;5.78;;;;;;;33.46;43.91;100081.34;4938608;29;20117;-74
2021/06/30 10:21:56;;;;;;;13.77;4.43;;;;;;;33.17;44.39;100077.63;4954634;29;20039;-73
2021/06/30 10:24:25;;;;;;;15.48;5.00;;;;;;;33.69;43.68;100088.66;4938645;29;20027;-72
2021/06/30 10:26:51;;;;;;;18.17;4.30;;;;;;;33.26;43.67;100086.03;4954423;29;20032;-72
2021/06/30 10:29:18;;;;;;;22.50;5.43;;;;;;;33.42;43.79;100092.34;4954512;29;20082;-73
2021/06/30 10:31:48;;;;;;;19.08;4.97;;;;;;;33.56;43.13;100074.00;4954409;29;20042;-72
2021/06/30 10:34:18;;;;;;;23.80;5.63;;;;;;;33.79;42.63;100078.41;4954047;28;20092;-72
2021/06/30 10:36:53;;;;;;;13.38;4.72;;;;;;;32.67;44.13;100075.41;4938680;29;20046;-69
2021/06/30 10:39:40;;;;;;;20.63;5.45;;;;;;;33.21;43.30;100072.41;4954892;29;20024;-73
2021/06/30 10:42:16;;;;;;;18.50;4.88;;;;;;;33.17;43.01;100080.50;4938339;29;20490;-74
2021/06/30 10:44:50;;;;;;;15.77;5.30;;;;;;;32.44;44.67;100077.44;4956336;29;20479;-72
2021/06/30 10:47:42;;;;;;;18.50;5.38;;;;;;;32.45;45.51;100081.91;4954027;29;20031;-73
2021/06/30 10:50:23;;;;;;;17.60;5.73;;;;;;;32.39;45.95;100042.88;4938667;29;20395;-73
2021/06/30 10:53:01;;;;;;;16.40;5.90;;;;;;;32.79;45.33;100067.59;4938169;29;20031;-74
2021/06/30 10:55:36;;;;;;;16.48;5.90;;;;;;;32.57;45.63;100065.44;4938046;29;20037;-73
2021/06/30 10:58:11;;;;;;;17.75;5.18;;;;;;;32.79;45.48;100058.94;4937498;29;20039;-69
2021/06/30 11:00:59;;;;;;;15.60;5.15;;;;;;;33.29;44.05;100061.94;4937727;29;20429;-69
2021/06/30 11:03:35;;;;;;;15.80;4.93;;;;;;;33.76;42.74;100053.50;4937993;29;20047;-69
2021/06/30 11:06:06;;;;;;;20.92;6.47;;;;;;;34.44;41.53;100064.84;4954400;29;20359;-69
2021/06/30 11:08:49;;;;;;;10.67;4.63;;;;;;;34.30;39.98;100079.06;4938017;29;20031;-71
2021/06/30 11:11:16;;;;;;;13.48;5.13;;;;;;;35.18;38.38;100081.25;4954522;29;20366;-69
2021/06/30 11:14:05;;;;;;;22.83;5.85;;;;;;;34.93;38.71;100084.03;4937880;29;20037;-68
2021/06/30 11:16:36;;;;;;;11.18;4.22;;;;;;;35.27;38.00;100086.72;4938571;29;20057;-70
2021/06/30 11:19:03;;;;;;;13.10;5.00;;;;;;;35.03;39.25;100075.06;4938395;29;20470;-69
2021/06/30 11:22:08;;;;;;;18.08;5.30;;;;;;;35.10;39.22;100081.06;4954061;29;20035;-70
2021/06/30 11:24:39;;;;;;;12.80;4.60;;;;;;;35.73;37.89;100067.66;4953979;29;20040;-70
2021/06/30 11:27:22;;;;;;;19.08;6.90;;;;;;;35.84;37.06;100076.22;4937672;29;20118;-71